sensor_id;sensor_type;location;lat;lon;timestamp;P1;durP1;ratioP1;P2;durP2;ratioP2
14770;SDS011;7477;45.222;5.688;2022-12-16T00:01:55;1.30;;;1.10;;
14770;SDS011;7477;45.222;5.688;2022-12-16T00:05:16;1.48;;;1.30;;
14770;SDS011;7477;45.222;5.688;2022-12-16T00:08:38;1.02;;;0.88;;
14770;SDS011;7477;45.222;5.688;2022-12-16T00:11:58;1.40;;;1.02;;
14770;SDS011;7477;45.222;5.688;2022-12-16T00:15:17;2.17;;;1.80;;
14770;SDS011;7477;45.222;5.688;2022-12-16T00:18:36;1.83;;;1.65;;
14770;SDS011;7477;45.222;5.688;2022-12-16T00:21:56;1.35;;;1.15;;
14770;SDS011;7477;45.222;5.688;2022-12-16T00:25:16;1.80;;;1.65;;
14770;SDS011;7477;45.222;5.688;2022-12-16T00:28:35;5.20;;;2.33;;
14770;SDS011;7477;45.222;5.688;2022-12-16T00:31:55;2.37;;;1.77;;
14770;SDS011;7477;45.222;5.688;2022-12-16T00:35:14;11.95;;;4.75;;
14770;SDS011;7477;45.222;5.688;2022-12-16T00:38:33;1.85;;;1.20;;
14770;SDS011;7477;45.222;5.688;2022-12-16T00:41:52;2.75;;;1.77;;
14770;SDS011;7477;45.222;5.688;2022-12-16T00:45:11;1.58;;;1.30;;
14770;SDS011;7477;45.222;5.688;2022-12-16T00:48:31;1.33;;;0.95;;
14770;SDS011;7477;45.222;5.688;2022-12-16T00:51:50;1.30;;;1.20;;
14770;SDS011;7477;45.222;5.688;2022-12-16T00:55:09;1.30;;;1.20;;
14770;SDS011;7477;45.222;5.688;2022-12-16T00:58:29;1.30;;;1.20;;
14770;SDS011;7477;45.222;5.688;2022-12-16T01:01:48;1.52;;;1.20;;
14770;SDS011;7477;45.222;5.688;2022-12-16T01:05:08;1.17;;;1.00;;
14770;SDS011;7477;45.222;5.688;2022-12-16T01:08:28;2.92;;;1.20;;
14770;SDS011;7477;45.222;5.688;2022-12-16T01:11:47;1.17;;;1.07;;
14770;SDS011;7477;45.222;5.688;2022-12-16T01:15:07;1.25;;;1.15;;
14770;SDS011;7477;45.222;5.688;2022-12-16T01:18:27;0.95;;;0.95;;
14770;SDS011;7477;45.222;5.688;2022-12-16T01:21:46;1.10;;;1.00;;
14770;SDS011;7477;45.222;5.688;2022-12-16T01:25:05;1.30;;;1.00;;
14770;SDS011;7477;45.222;5.688;2022-12-16T01:28:26;2.00;;;1.20;;
14770;SDS011;7477;45.222;5.688;2022-12-16T01:31:46;1.77;;;1.08;;
14770;SDS011;7477;45.222;5.688;2022-12-16T01:35:06;1.43;;;1.00;;
14770;SDS011;7477;45.222;5.688;2022-12-16T01:38:26;1.40;;;1.30;;
14770;SDS011;7477;45.222;5.688;2022-12-16T01:41:45;1.40;;;0.90;;
14770;SDS011;7477;45.222;5.688;2022-12-16T01:45:21;1.83;;;1.20;;
14770;SDS011;7477;45.222;5.688;2022-12-16T01:49:01;0.80;;;0.80;;
14770;SDS011;7477;45.222;5.688;2022-12-16T01:52:25;1.13;;;1.00;;
14770;SDS011;7477;45.222;5.688;2022-12-16T01:55:51;2.05;;;1.20;;
14770;SDS011;7477;45.222;5.688;2022-12-16T01:59:13;1.50;;;1.17;;
14770;SDS011;7477;45.222;5.688;2022-12-16T02:02:34;4.27;;;1.17;;
14770;SDS011;7477;45.222;5.688;2022-12-16T02:05:54;1.13;;;1.00;;
14770;SDS011;7477;45.222;5.688;2022-12-16T02:09:14;1.40;;;1.10;;
14770;SDS011;7477;45.222;5.688;2022-12-16T02:16:22;1.33;;;1.00;;
14770;SDS011;7477;45.222;5.688;2022-12-16T02:27:35;1.00;;;0.90;;
14770;SDS011;7477;45.222;5.688;2022-12-16T02:48:37;0.73;;;0.70;;
14770;SDS011;7477;45.222;5.688;2022-12-16T02:51:57;0.80;;;0.80;;
14770;SDS011;7477;45.222;5.688;2022-12-16T02:55:18;3.70;;;0.80;;
14770;SDS011;7477;45.222;5.688;2022-12-16T02:58:43;0.90;;;0.90;;
14770;SDS011;7477;45.222;5.688;2022-12-16T03:02:20;2.00;;;0.88;;
14770;SDS011;7477;45.222;5.688;2022-12-16T03:05:48;0.60;;;0.60;;
14770;SDS011;7477;45.222;5.688;2022-12-16T03:09:10;0.80;;;0.80;;
14770;SDS011;7477;45.222;5.688;2022-12-16T03:12:33;0.80;;;0.80;;
14770;SDS011;7477;45.222;5.688;2022-12-16T03:15:56;0.67;;;0.67;;
14770;SDS011;7477;45.222;5.688;2022-12-16T03:19:18;0.88;;;0.60;;
14770;SDS011;7477;45.222;5.688;2022-12-16T03:22:39;0.82;;;0.82;;
14770;SDS011;7477;45.222;5.688;2022-12-16T03:26:04;0.80;;;0.77;;
14770;SDS011;7477;45.222;5.688;2022-12-16T03:29:33;0.73;;;0.70;;
14770;SDS011;7477;45.222;5.688;2022-12-16T03:33:08;1.15;;;0.82;;
14770;SDS011;7477;45.222;5.688;2022-12-16T03:36:33;0.98;;;0.90;;
14770;SDS011;7477;45.222;5.688;2022-12-16T03:39:56;1.13;;;1.00;;
14770;SDS011;7477;45.222;5.688;2022-12-16T03:43:18;1.53;;;1.13;;
14770;SDS011;7477;45.222;5.688;2022-12-16T03:46:38;1.13;;;1.02;;
14770;SDS011;7477;45.222;5.688;2022-12-16T03:49:58;0.88;;;0.82;;
14770;SDS011;7477;45.222;5.688;2022-12-16T03:53:17;1.37;;;0.97;;
14770;SDS011;7477;45.222;5.688;2022-12-16T03:56:36;1.40;;;1.30;;
14770;SDS011;7477;45.222;5.688;2022-12-16T03:59:56;1.43;;;0.93;;
14770;SDS011;7477;45.222;5.688;2022-12-16T04:03:15;1.27;;;1.03;;
14770;SDS011;7477;45.222;5.688;2022-12-16T04:06:34;1.13;;;1.03;;
14770;SDS011;7477;45.222;5.688;2022-12-16T04:09:53;1.38;;;1.02;;
14770;SDS011;7477;45.222;5.688;2022-12-16T04:13:12;0.90;;;0.90;;
14770;SDS011;7477;45.222;5.688;2022-12-16T04:16:51;1.00;;;0.80;;
14770;SDS011;7477;45.222;5.688;2022-12-16T04:20:34;1.30;;;1.02;;
14770;SDS011;7477;45.222;5.688;2022-12-16T04:24:16;1.10;;;1.00;;
14770;SDS011;7477;45.222;5.688;2022-12-16T04:27:37;1.02;;;0.90;;
14770;SDS011;7477;45.222;5.688;2022-12-16T04:30:56;1.45;;;1.30;;
14770;SDS011;7477;45.222;5.688;2022-12-16T04:34:16;1.10;;;1.00;;
14770;SDS011;7477;45.222;5.688;2022-12-16T04:37:44;1.20;;;0.87;;
14770;SDS011;7477;45.222;5.688;2022-12-16T04:41:23;0.88;;;0.88;;
14770;SDS011;7477;45.222;5.688;2022-12-16T04:45:01;1.02;;;0.82;;
14770;SDS011;7477;45.222;5.688;2022-12-16T04:48:39;0.70;;;0.70;;
14770;SDS011;7477;45.222;5.688;2022-12-16T04:52:17;3.03;;;0.80;;
14770;SDS011;7477;45.222;5.688;2022-12-16T04:55:55;0.70;;;0.70;;
14770;SDS011;7477;45.222;5.688;2022-12-16T04:59:34;0.60;;;0.60;;
14770;SDS011;7477;45.222;5.688;2022-12-16T05:03:12;1.97;;;1.00;;
14770;SDS011;7477;45.222;5.688;2022-12-16T05:06:50;7.32;;;1.38;;
14770;SDS011;7477;45.222;5.688;2022-12-16T05:10:28;1.50;;;1.27;;
14770;SDS011;7477;45.222;5.688;2022-12-16T05:14:06;1.70;;;1.30;;
14770;SDS011;7477;45.222;5.688;2022-12-16T05:17:44;1.70;;;1.50;;
14770;SDS011;7477;45.222;5.688;2022-12-16T05:21:22;2.07;;;1.40;;
14770;SDS011;7477;45.222;5.688;2022-12-16T05:25:05;1.30;;;1.20;;
14770;SDS011;7477;45.222;5.688;2022-12-16T05:28:43;1.67;;;1.57;;
14770;SDS011;7477;45.222;5.688;2022-12-16T05:32:21;1.83;;;1.57;;
14770;SDS011;7477;45.222;5.688;2022-12-16T05:35:59;0.90;;;0.90;;
14770;SDS011;7477;45.222;5.688;2022-12-16T05:39:38;1.57;;;1.30;;
14770;SDS011;7477;45.222;5.688;2022-12-16T05:43:16;1.60;;;1.43;;
14770;SDS011;7477;45.222;5.688;2022-12-16T05:46:54;1.00;;;1.00;;
14770;SDS011;7477;45.222;5.688;2022-12-16T05:50:32;1.25;;;1.13;;
14770;SDS011;7477;45.222;5.688;2022-12-16T05:54:10;1.70;;;1.60;;
14770;SDS011;7477;45.222;5.688;2022-12-16T05:57:51;2.37;;;1.60;;
14770;SDS011;7477;45.222;5.688;2022-12-16T06:01:30;1.77;;;1.40;;
14770;SDS011;7477;45.222;5.688;2022-12-16T06:05:08;1.57;;;1.10;;
14770;SDS011;7477;45.222;5.688;2022-12-16T06:08:46;1.73;;;1.63;;
14770;SDS011;7477;45.222;5.688;2022-12-16T06:12:24;7.40;;;4.50;;
14770;SDS011;7477;45.222;5.688;2022-12-16T06:16:02;15.17;;;6.70;;
14770;SDS011;7477;45.222;5.688;2022-12-16T06:19:40;4.97;;;3.20;;
14770;SDS011;7477;45.222;5.688;2022-12-16T06:23:18;6.63;;;3.33;;
14770;SDS011;7477;45.222;5.688;2022-12-16T06:26:56;5.00;;;3.20;;
14770;SDS011;7477;45.222;5.688;2022-12-16T06:30:34;4.80;;;3.80;;
14770;SDS011;7477;45.222;5.688;2022-12-16T06:34:13;4.28;;;3.00;;
14770;SDS011;7477;45.222;5.688;2022-12-16T06:37:51;4.77;;;3.13;;
14770;SDS011;7477;45.222;5.688;2022-12-16T06:41:29;5.68;;;3.55;;
14770;SDS011;7477;45.222;5.688;2022-12-16T06:45:07;5.87;;;4.07;;
14770;SDS011;7477;45.222;5.688;2022-12-16T06:48:46;5.67;;;4.70;;
14770;SDS011;7477;45.222;5.688;2022-12-16T06:52:24;5.23;;;3.60;;
14770;SDS011;7477;45.222;5.688;2022-12-16T06:56:02;5.27;;;3.73;;
14770;SDS011;7477;45.222;5.688;2022-12-16T06:59:40;6.30;;;3.07;;
14770;SDS011;7477;45.222;5.688;2022-12-16T07:03:18;4.10;;;3.33;;
14770;SDS011;7477;45.222;5.688;2022-12-16T07:06:56;5.73;;;4.00;;
14770;SDS011;7477;45.222;5.688;2022-12-16T07:10:35;5.40;;;3.90;;
14770;SDS011;7477;45.222;5.688;2022-12-16T07:14:14;4.73;;;3.40;;
14770;SDS011;7477;45.222;5.688;2022-12-16T07:17:52;4.90;;;3.43;;
14770;SDS011;7477;45.222;5.688;2022-12-16T07:21:30;7.13;;;4.60;;
14770;SDS011;7477;45.222;5.688;2022-12-16T07:25:08;4.93;;;3.63;;
14770;SDS011;7477;45.222;5.688;2022-12-16T07:28:47;7.40;;;3.93;;
14770;SDS011;7477;45.222;5.688;2022-12-16T07:32:25;6.83;;;4.07;;
14770;SDS011;7477;45.222;5.688;2022-12-16T07:36:03;5.43;;;3.70;;
14770;SDS011;7477;45.222;5.688;2022-12-16T07:39:42;7.30;;;4.37;;
14770;SDS011;7477;45.222;5.688;2022-12-16T07:43:20;5.40;;;4.27;;
14770;SDS011;7477;45.222;5.688;2022-12-16T07:46:58;6.07;;;4.43;;
14770;SDS011;7477;45.222;5.688;2022-12-16T07:50:36;6.83;;;4.57;;
14770;SDS011;7477;45.222;5.688;2022-12-16T07:54:15;8.93;;;5.70;;
14770;SDS011;7477;45.222;5.688;2022-12-16T07:57:54;5.93;;;4.40;;
14770;SDS011;7477;45.222;5.688;2022-12-16T08:01:32;8.10;;;5.33;;
14770;SDS011;7477;45.222;5.688;2022-12-16T08:05:10;8.97;;;5.70;;
14770;SDS011;7477;45.222;5.688;2022-12-16T08:08:48;8.13;;;5.63;;
14770;SDS011;7477;45.222;5.688;2022-12-16T08:12:26;10.40;;;5.73;;
14770;SDS011;7477;45.222;5.688;2022-12-16T08:16:04;9.80;;;5.83;;
14770;SDS011;7477;45.222;5.688;2022-12-16T08:19:42;10.17;;;6.00;;
14770;SDS011;7477;45.222;5.688;2022-12-16T08:23:20;12.60;;;6.30;;
14770;SDS011;7477;45.222;5.688;2022-12-16T08:26:59;10.77;;;6.63;;
14770;SDS011;7477;45.222;5.688;2022-12-16T08:30:37;10.90;;;6.57;;
14770;SDS011;7477;45.222;5.688;2022-12-16T08:34:15;12.70;;;6.90;;
14770;SDS011;7477;45.222;5.688;2022-12-16T08:37:53;11.77;;;7.43;;
14770;SDS011;7477;45.222;5.688;2022-12-16T08:41:32;10.70;;;7.07;;
14770;SDS011;7477;45.222;5.688;2022-12-16T08:45:10;12.53;;;7.47;;
14770;SDS011;7477;45.222;5.688;2022-12-16T08:48:48;11.13;;;7.10;;
14770;SDS011;7477;45.222;5.688;2022-12-16T08:52:26;13.50;;;7.43;;
14770;SDS011;7477;45.222;5.688;2022-12-16T08:56:05;12.60;;;7.77;;
14770;SDS011;7477;45.222;5.688;2022-12-16T08:59:43;14.73;;;8.37;;
14770;SDS011;7477;45.222;5.688;2022-12-16T09:03:21;14.13;;;7.93;;
14770;SDS011;7477;45.222;5.688;2022-12-16T09:06:59;14.37;;;9.07;;
14770;SDS011;7477;45.222;5.688;2022-12-16T09:10:37;12.87;;;8.13;;
14770;SDS011;7477;45.222;5.688;2022-12-16T09:14:15;14.57;;;8.97;;
14770;SDS011;7477;45.222;5.688;2022-12-16T09:17:54;12.50;;;8.53;;
14770;SDS011;7477;45.222;5.688;2022-12-16T09:21:33;13.43;;;8.50;;
14770;SDS011;7477;45.222;5.688;2022-12-16T09:25:11;15.70;;;8.87;;
14770;SDS011;7477;45.222;5.688;2022-12-16T09:28:49;12.83;;;8.53;;
14770;SDS011;7477;45.222;5.688;2022-12-16T09:32:27;15.67;;;9.20;;
14770;SDS011;7477;45.222;5.688;2022-12-16T09:36:05;14.60;;;8.80;;
14770;SDS011;7477;45.222;5.688;2022-12-16T09:39:51;15.93;;;9.07;;
14770;SDS011;7477;45.222;5.688;2022-12-16T09:47:23;14.23;;;8.03;;
14770;SDS011;7477;45.222;5.688;2022-12-16T09:51:05;18.27;;;9.70;;
14770;SDS011;7477;45.222;5.688;2022-12-16T09:54:45;17.27;;;9.70;;
14770;SDS011;7477;45.222;5.688;2022-12-16T09:58:25;15.87;;;9.30;;
14770;SDS011;7477;45.222;5.688;2022-12-16T10:02:11;15.23;;;8.83;;
14770;SDS011;7477;45.222;5.688;2022-12-16T10:05:57;14.47;;;9.07;;
14770;SDS011;7477;45.222;5.688;2022-12-16T10:17:44;18.63;;;10.43;;
14770;SDS011;7477;45.222;5.688;2022-12-16T10:21:25;15.80;;;9.67;;
14770;SDS011;7477;45.222;5.688;2022-12-16T10:25:07;17.70;;;8.93;;
14770;SDS011;7477;45.222;5.688;2022-12-16T10:29:19;14.00;;;9.50;;
14770;SDS011;7477;45.222;5.688;2022-12-16T10:33:01;13.93;;;8.50;;
14770;SDS011;7477;45.222;5.688;2022-12-16T10:36:39;15.67;;;9.77;;
14770;SDS011;7477;45.222;5.688;2022-12-16T10:40:20;14.40;;;8.80;;
14770;SDS011;7477;45.222;5.688;2022-12-16T10:44:04;13.87;;;8.07;;
14770;SDS011;7477;45.222;5.688;2022-12-16T10:47:49;14.17;;;8.37;;
14770;SDS011;7477;45.222;5.688;2022-12-16T10:51:27;13.60;;;8.33;;
14770;SDS011;7477;45.222;5.688;2022-12-16T10:55:11;13.60;;;8.80;;
14770;SDS011;7477;45.222;5.688;2022-12-16T10:58:59;18.37;;;9.30;;
14770;SDS011;7477;45.222;5.688;2022-12-16T11:02:43;15.67;;;8.93;;
14770;SDS011;7477;45.222;5.688;2022-12-16T11:10:23;15.13;;;9.77;;
14770;SDS011;7477;45.222;5.688;2022-12-16T11:18:04;16.03;;;9.70;;
14770;SDS011;7477;45.222;5.688;2022-12-16T11:21:45;16.80;;;9.40;;
14770;SDS011;7477;45.222;5.688;2022-12-16T11:25:24;16.97;;;10.23;;
14770;SDS011;7477;45.222;5.688;2022-12-16T11:32:54;18.47;;;10.03;;
14770;SDS011;7477;45.222;5.688;2022-12-16T11:36:35;16.93;;;10.17;;
14770;SDS011;7477;45.222;5.688;2022-12-16T11:40:16;17.63;;;10.47;;
14770;SDS011;7477;45.222;5.688;2022-12-16T11:43:56;17.20;;;9.63;;
14770;SDS011;7477;45.222;5.688;2022-12-16T11:51:21;17.63;;;9.83;;
14770;SDS011;7477;45.222;5.688;2022-12-16T11:58:53;14.37;;;9.13;;
14770;SDS011;7477;45.222;5.688;2022-12-16T12:10:22;15.37;;;9.30;;
14770;SDS011;7477;45.222;5.688;2022-12-16T12:18:15;14.27;;;8.87;;
14770;SDS011;7477;45.222;5.688;2022-12-16T12:22:35;16.00;;;10.10;;
14770;SDS011;7477;45.222;5.688;2022-12-16T12:26:16;13.70;;;9.13;;
14770;SDS011;7477;45.222;5.688;2022-12-16T12:30:12;16.33;;;10.47;;
14770;SDS011;7477;45.222;5.688;2022-12-16T12:38:03;18.33;;;9.53;;
14770;SDS011;7477;45.222;5.688;2022-12-16T12:46:09;19.67;;;10.83;;
14770;SDS011;7477;45.222;5.688;2022-12-16T12:50:06;16.03;;;9.50;;
14770;SDS011;7477;45.222;5.688;2022-12-16T12:53:53;18.93;;;10.43;;
14770;SDS011;7477;45.222;5.688;2022-12-16T12:57:44;15.83;;;10.73;;
14770;SDS011;7477;45.222;5.688;2022-12-16T13:01:25;22.93;;;12.97;;
14770;SDS011;7477;45.222;5.688;2022-12-16T13:05:13;29.60;;;15.13;;
14770;SDS011;7477;45.222;5.688;2022-12-16T13:08:54;29.03;;;15.87;;
14770;SDS011;7477;45.222;5.688;2022-12-16T13:12:34;28.87;;;15.17;;
14770;SDS011;7477;45.222;5.688;2022-12-16T13:28:16;25.00;;;13.57;;
14770;SDS011;7477;45.222;5.688;2022-12-16T13:31:59;26.93;;;14.93;;
14770;SDS011;7477;45.222;5.688;2022-12-16T13:35:51;24.00;;;14.20;;
14770;SDS011;7477;45.222;5.688;2022-12-16T13:39:37;30.97;;;16.40;;
14770;SDS011;7477;45.222;5.688;2022-12-16T13:55:43;26.37;;;14.97;;
14770;SDS011;7477;45.222;5.688;2022-12-16T13:59:28;29.87;;;15.50;;
14770;SDS011;7477;45.222;5.688;2022-12-16T14:03:19;29.87;;;16.03;;
14770;SDS011;7477;45.222;5.688;2022-12-16T14:07:20;22.70;;;12.73;;
14770;SDS011;7477;45.222;5.688;2022-12-16T14:11:04;29.20;;;14.73;;
14770;SDS011;7477;45.222;5.688;2022-12-16T14:14:55;26.60;;;13.93;;
14770;SDS011;7477;45.222;5.688;2022-12-16T14:22:52;26.77;;;14.67;;
14770;SDS011;7477;45.222;5.688;2022-12-16T14:26:38;25.33;;;14.73;;
14770;SDS011;7477;45.222;5.688;2022-12-16T14:30:20;29.63;;;15.93;;
14770;SDS011;7477;45.222;5.688;2022-12-16T14:34:01;28.17;;;15.10;;
14770;SDS011;7477;45.222;5.688;2022-12-16T14:37:40;27.27;;;14.30;;
14770;SDS011;7477;45.222;5.688;2022-12-16T14:41:19;27.13;;;15.23;;
14770;SDS011;7477;45.222;5.688;2022-12-16T14:44:59;28.93;;;15.63;;
14770;SDS011;7477;45.222;5.688;2022-12-16T14:48:37;27.33;;;14.40;;
14770;SDS011;7477;45.222;5.688;2022-12-16T14:56:07;23.97;;;13.47;;
14770;SDS011;7477;45.222;5.688;2022-12-16T15:00:00;25.00;;;14.20;;
14770;SDS011;7477;45.222;5.688;2022-12-16T15:03:39;28.23;;;14.20;;
14770;SDS011;7477;45.222;5.688;2022-12-16T15:07:20;26.50;;;15.07;;
14770;SDS011;7477;45.222;5.688;2022-12-16T15:10:58;33.73;;;16.60;;
14770;SDS011;7477;45.222;5.688;2022-12-16T15:14:38;29.87;;;15.80;;
14770;SDS011;7477;45.222;5.688;2022-12-16T15:18:22;28.07;;;15.47;;
14770;SDS011;7477;45.222;5.688;2022-12-16T15:22:03;30.60;;;14.33;;
14770;SDS011;7477;45.222;5.688;2022-12-16T15:25:46;24.97;;;14.07;;
14770;SDS011;7477;45.222;5.688;2022-12-16T15:33:14;28.17;;;13.03;;
14770;SDS011;7477;45.222;5.688;2022-12-16T15:36:54;26.10;;;13.50;;
14770;SDS011;7477;45.222;5.688;2022-12-16T15:40:32;26.50;;;14.30;;
14770;SDS011;7477;45.222;5.688;2022-12-16T15:44:15;26.53;;;14.17;;
14770;SDS011;7477;45.222;5.688;2022-12-16T15:47:55;28.90;;;14.33;;
14770;SDS011;7477;45.222;5.688;2022-12-16T15:51:44;26.77;;;14.90;;
14770;SDS011;7477;45.222;5.688;2022-12-16T15:59:26;23.30;;;14.30;;
14770;SDS011;7477;45.222;5.688;2022-12-16T16:03:17;26.23;;;12.90;;
14770;SDS011;7477;45.222;5.688;2022-12-16T16:07:01;23.47;;;12.80;;
14770;SDS011;7477;45.222;5.688;2022-12-16T16:10:40;22.47;;;13.17;;
14770;SDS011;7477;45.222;5.688;2022-12-16T16:14:19;24.47;;;13.90;;
14770;SDS011;7477;45.222;5.688;2022-12-16T16:18:04;28.23;;;14.37;;
14770;SDS011;7477;45.222;5.688;2022-12-16T16:21:42;24.40;;;13.17;;
14770;SDS011;7477;45.222;5.688;2022-12-16T16:25:21;18.87;;;12.07;;
14770;SDS011;7477;45.222;5.688;2022-12-16T16:28:59;21.47;;;12.60;;
14770;SDS011;7477;45.222;5.688;2022-12-16T16:32:37;22.47;;;12.50;;
14770;SDS011;7477;45.222;5.688;2022-12-16T16:36:15;24.33;;;12.63;;
14770;SDS011;7477;45.222;5.688;2022-12-16T16:39:53;20.07;;;12.47;;
14770;SDS011;7477;45.222;5.688;2022-12-16T16:43:31;19.97;;;12.23;;
14770;SDS011;7477;45.222;5.688;2022-12-16T16:47:13;23.20;;;13.00;;
14770;SDS011;7477;45.222;5.688;2022-12-16T16:50:56;20.03;;;11.20;;
14770;SDS011;7477;45.222;5.688;2022-12-16T16:54:37;19.57;;;11.13;;
14770;SDS011;7477;45.222;5.688;2022-12-16T16:58:26;17.43;;;10.30;;
14770;SDS011;7477;45.222;5.688;2022-12-16T17:02:16;22.23;;;11.93;;
14770;SDS011;7477;45.222;5.688;2022-12-16T17:05:56;20.13;;;10.50;;
14770;SDS011;7477;45.222;5.688;2022-12-16T17:09:34;20.60;;;11.07;;
14770;SDS011;7477;45.222;5.688;2022-12-16T17:13:12;17.93;;;11.10;;
14770;SDS011;7477;45.222;5.688;2022-12-16T17:16:50;19.43;;;11.00;;
14770;SDS011;7477;45.222;5.688;2022-12-16T17:20:28;20.77;;;10.77;;
14770;SDS011;7477;45.222;5.688;2022-12-16T17:24:17;19.33;;;11.33;;
14770;SDS011;7477;45.222;5.688;2022-12-16T17:27:55;22.67;;;10.63;;
14770;SDS011;7477;45.222;5.688;2022-12-16T17:31:33;17.27;;;11.30;;
14770;SDS011;7477;45.222;5.688;2022-12-16T17:35:11;20.63;;;12.00;;
14770;SDS011;7477;45.222;5.688;2022-12-16T17:38:50;22.43;;;13.30;;
14770;SDS011;7477;45.222;5.688;2022-12-16T17:42:28;22.27;;;12.57;;
14770;SDS011;7477;45.222;5.688;2022-12-16T17:46:08;22.47;;;13.03;;
14770;SDS011;7477;45.222;5.688;2022-12-16T17:49:47;22.10;;;11.77;;
14770;SDS011;7477;45.222;5.688;2022-12-16T17:53:29;21.23;;;11.63;;
14770;SDS011;7477;45.222;5.688;2022-12-16T17:57:08;19.43;;;11.43;;
14770;SDS011;7477;45.222;5.688;2022-12-16T18:00:47;21.63;;;12.37;;
14770;SDS011;7477;45.222;5.688;2022-12-16T18:04:25;23.50;;;12.90;;
14770;SDS011;7477;45.222;5.688;2022-12-16T18:08:03;21.50;;;11.60;;
14770;SDS011;7477;45.222;5.688;2022-12-16T18:11:41;22.80;;;13.00;;
14770;SDS011;7477;45.222;5.688;2022-12-16T18:15:20;19.40;;;11.73;;
14770;SDS011;7477;45.222;5.688;2022-12-16T18:18:58;19.37;;;11.50;;
14770;SDS011;7477;45.222;5.688;2022-12-16T18:22:36;24.27;;;12.57;;
14770;SDS011;7477;45.222;5.688;2022-12-16T18:26:14;19.70;;;11.10;;
14770;SDS011;7477;45.222;5.688;2022-12-16T18:29:53;18.63;;;11.23;;
14770;SDS011;7477;45.222;5.688;2022-12-16T18:33:31;22.43;;;12.00;;
14770;SDS011;7477;45.222;5.688;2022-12-16T18:37:10;15.23;;;9.40;;
14770;SDS011;7477;45.222;5.688;2022-12-16T18:40:49;20.33;;;9.60;;
14770;SDS011;7477;45.222;5.688;2022-12-16T18:44:27;16.00;;;9.40;;
14770;SDS011;7477;45.222;5.688;2022-12-16T18:48:06;18.50;;;9.03;;
14770;SDS011;7477;45.222;5.688;2022-12-16T18:51:44;17.43;;;9.40;;
14770;SDS011;7477;45.222;5.688;2022-12-16T18:55:22;18.37;;;9.50;;
14770;SDS011;7477;45.222;5.688;2022-12-16T18:58:59;16.23;;;10.33;;
14770;SDS011;7477;45.222;5.688;2022-12-16T19:02:37;14.80;;;8.70;;
14770;SDS011;7477;45.222;5.688;2022-12-16T19:06:15;15.07;;;9.37;;
14770;SDS011;7477;45.222;5.688;2022-12-16T19:09:53;15.53;;;8.53;;
14770;SDS011;7477;45.222;5.688;2022-12-16T19:13:31;14.93;;;8.40;;
14770;SDS011;7477;45.222;5.688;2022-12-16T19:17:09;12.03;;;7.83;;
14770;SDS011;7477;45.222;5.688;2022-12-16T19:20:52;13.77;;;7.77;;
14770;SDS011;7477;45.222;5.688;2022-12-16T19:24:33;16.77;;;9.13;;
14770;SDS011;7477;45.222;5.688;2022-12-16T19:28:22;12.73;;;7.53;;
14770;SDS011;7477;45.222;5.688;2022-12-16T19:32:00;13.83;;;7.93;;
14770;SDS011;7477;45.222;5.688;2022-12-16T19:35:38;13.70;;;8.17;;
14770;SDS011;7477;45.222;5.688;2022-12-16T19:39:16;14.40;;;8.17;;
14770;SDS011;7477;45.222;5.688;2022-12-16T19:42:54;19.40;;;10.07;;
14770;SDS011;7477;45.222;5.688;2022-12-16T19:46:33;17.33;;;10.53;;
14770;SDS011;7477;45.222;5.688;2022-12-16T19:50:11;19.63;;;9.30;;
14770;SDS011;7477;45.222;5.688;2022-12-16T19:53:49;16.67;;;9.77;;
14770;SDS011;7477;45.222;5.688;2022-12-16T19:57:27;19.20;;;10.33;;
14770;SDS011;7477;45.222;5.688;2022-12-16T20:01:05;18.37;;;9.97;;
14770;SDS011;7477;45.222;5.688;2022-12-16T20:04:44;16.40;;;9.73;;
14770;SDS011;7477;45.222;5.688;2022-12-16T20:08:22;18.53;;;9.80;;
14770;SDS011;7477;45.222;5.688;2022-12-16T20:12:00;18.07;;;10.13;;
14770;SDS011;7477;45.222;5.688;2022-12-16T20:15:38;20.43;;;9.67;;
14770;SDS011;7477;45.222;5.688;2022-12-16T20:19:16;18.83;;;9.43;;
14770;SDS011;7477;45.222;5.688;2022-12-16T20:22:54;14.97;;;8.63;;
14770;SDS011;7477;45.222;5.688;2022-12-16T20:26:33;17.03;;;9.93;;
14770;SDS011;7477;45.222;5.688;2022-12-16T20:30:11;20.67;;;11.63;;
14770;SDS011;7477;45.222;5.688;2022-12-16T20:33:53;21.10;;;10.47;;
14770;SDS011;7477;45.222;5.688;2022-12-16T20:37:31;17.07;;;9.33;;
14770;SDS011;7477;45.222;5.688;2022-12-16T20:41:09;18.67;;;9.10;;
14770;SDS011;7477;45.222;5.688;2022-12-16T20:44:47;16.87;;;9.67;;
14770;SDS011;7477;45.222;5.688;2022-12-16T20:48:25;15.23;;;9.20;;
14770;SDS011;7477;45.222;5.688;2022-12-16T20:52:04;15.30;;;9.20;;
14770;SDS011;7477;45.222;5.688;2022-12-16T20:55:42;15.13;;;9.03;;
14770;SDS011;7477;45.222;5.688;2022-12-16T20:59:20;16.47;;;9.27;;
14770;SDS011;7477;45.222;5.688;2022-12-16T21:02:58;12.77;;;8.03;;
14770;SDS011;7477;45.222;5.688;2022-12-16T21:06:36;14.93;;;8.20;;
14770;SDS011;7477;45.222;5.688;2022-12-16T21:10:14;12.33;;;7.83;;
14770;SDS011;7477;45.222;5.688;2022-12-16T21:13:52;14.83;;;8.90;;
14770;SDS011;7477;45.222;5.688;2022-12-16T21:17:30;16.33;;;9.03;;
14770;SDS011;7477;45.222;5.688;2022-12-16T21:21:08;15.77;;;9.67;;
14770;SDS011;7477;45.222;5.688;2022-12-16T21:24:46;16.77;;;9.73;;
14770;SDS011;7477;45.222;5.688;2022-12-16T21:28:41;16.73;;;9.80;;
14770;SDS011;7477;45.222;5.688;2022-12-16T21:32:19;17.37;;;9.07;;
14770;SDS011;7477;45.222;5.688;2022-12-16T21:36:04;19.87;;;11.50;;
14770;SDS011;7477;45.222;5.688;2022-12-16T21:39:43;13.43;;;8.67;;
14770;SDS011;7477;45.222;5.688;2022-12-16T21:43:21;15.77;;;9.07;;
14770;SDS011;7477;45.222;5.688;2022-12-16T21:46:59;16.23;;;9.60;;
14770;SDS011;7477;45.222;5.688;2022-12-16T21:50:37;19.17;;;10.17;;
14770;SDS011;7477;45.222;5.688;2022-12-16T21:54:15;14.23;;;9.20;;
14770;SDS011;7477;45.222;5.688;2022-12-16T21:57:53;19.43;;;10.00;;
14770;SDS011;7477;45.222;5.688;2022-12-16T22:01:34;24.57;;;13.77;;
14770;SDS011;7477;45.222;5.688;2022-12-16T22:05:12;28.03;;;15.17;;
14770;SDS011;7477;45.222;5.688;2022-12-16T22:08:50;31.00;;;15.97;;
14770;SDS011;7477;45.222;5.688;2022-12-16T22:12:30;17.67;;;11.97;;
14770;SDS011;7477;45.222;5.688;2022-12-16T22:16:10;21.50;;;12.07;;
14770;SDS011;7477;45.222;5.688;2022-12-16T22:19:48;21.23;;;11.60;;
14770;SDS011;7477;45.222;5.688;2022-12-16T22:23:26;19.67;;;11.40;;
14770;SDS011;7477;45.222;5.688;2022-12-16T22:27:05;19.70;;;10.57;;
14770;SDS011;7477;45.222;5.688;2022-12-16T22:30:44;21.90;;;12.27;;
14770;SDS011;7477;45.222;5.688;2022-12-16T22:34:30;21.33;;;11.60;;
14770;SDS011;7477;45.222;5.688;2022-12-16T22:38:08;19.80;;;11.87;;
14770;SDS011;7477;45.222;5.688;2022-12-16T22:41:46;16.43;;;11.20;;
14770;SDS011;7477;45.222;5.688;2022-12-16T22:45:24;16.53;;;10.50;;
14770;SDS011;7477;45.222;5.688;2022-12-16T22:49:04;20.70;;;11.43;;
14770;SDS011;7477;45.222;5.688;2022-12-16T22:52:42;19.27;;;11.33;;
14770;SDS011;7477;45.222;5.688;2022-12-16T22:56:20;19.63;;;11.70;;
14770;SDS011;7477;45.222;5.688;2022-12-16T22:59:58;22.73;;;12.10;;
14770;SDS011;7477;45.222;5.688;2022-12-16T23:03:36;20.43;;;11.10;;
14770;SDS011;7477;45.222;5.688;2022-12-16T23:07:15;18.67;;;11.53;;
14770;SDS011;7477;45.222;5.688;2022-12-16T23:10:53;20.67;;;11.63;;
14770;SDS011;7477;45.222;5.688;2022-12-16T23:14:32;18.20;;;10.97;;
14770;SDS011;7477;45.222;5.688;2022-12-16T23:18:10;21.63;;;11.37;;
14770;SDS011;7477;45.222;5.688;2022-12-16T23:21:49;21.67;;;11.63;;
14770;SDS011;7477;45.222;5.688;2022-12-16T23:25:27;25.23;;;12.53;;
14770;SDS011;7477;45.222;5.688;2022-12-16T23:29:05;21.13;;;12.00;;
14770;SDS011;7477;45.222;5.688;2022-12-16T23:32:44;21.77;;;11.87;;
14770;SDS011;7477;45.222;5.688;2022-12-16T23:36:22;20.00;;;11.40;;
14770;SDS011;7477;45.222;5.688;2022-12-16T23:40:01;24.77;;;13.23;;
14770;SDS011;7477;45.222;5.688;2022-12-16T23:43:39;23.20;;;11.90;;
14770;SDS011;7477;45.222;5.688;2022-12-16T23:47:17;23.27;;;12.40;;